Airport View

Enter AWOS ICAO identifier for current METAR.

ex. KFNL

KVTN 100252Z AUTO 11007KT 10SM CLR 26/16 A2998 RMK AO2 SLP128 T02560161 53002

10 Jul 2020 02:54

Frequency: 118.075

Phone: 402-376-1673

Other Area AWOS: KANW - KICR - KTIF - KGRN

TAF KVTN 092341Z 1000/1024 09009G17KT P6SM SCT060 FM100400 14005KT P6SM SCT250 FM101700 17012KT P6SM FEW250 FM102000 17014G22KT P6SM FEW250